createdAt,value
2019-04-14T00:00:53.081Z,2.46
2019-04-14T00:03:41.362Z,2.46
2019-04-14T00:06:11.262Z,2.37
2019-04-14T00:08:41.477Z,2.43
2019-04-14T00:11:10.536Z,2.31
2019-04-14T00:13:39.333Z,2.29
2019-04-14T00:16:09.500Z,2.42
2019-04-14T00:18:39.015Z,2.33
2019-04-14T00:21:08.724Z,2.33
2019-04-14T00:23:37.557Z,2.13
2019-04-14T00:26:31.551Z,2.05
2019-04-14T00:29:00.390Z,2.00
2019-04-14T00:31:30.582Z,1.99
2019-04-14T00:34:02.950Z,1.93
2019-04-14T00:36:37.853Z,1.81
2019-04-14T00:39:18.305Z,1.86
2019-04-14T00:42:06.815Z,1.95
2019-04-14T00:44:49.595Z,1.98
2019-04-14T00:47:22.200Z,1.96
2019-04-14T00:49:51.256Z,1.96
2019-04-14T00:52:21.206Z,1.94
2019-04-14T00:54:50.474Z,1.97
2019-04-14T00:57:20.154Z,1.88
2019-04-14T00:59:49.449Z,2.00
2019-04-14T01:02:18.907Z,1.97
2019-04-14T01:04:49.138Z,1.85
2019-04-14T01:07:17.850Z,1.82
2019-04-14T01:09:47.111Z,1.80
2019-04-14T01:12:17.099Z,1.75
2019-04-14T01:14:47.409Z,1.67
2019-04-14T01:17:17.721Z,1.63
2019-04-14T01:19:46.483Z,1.57
2019-04-14T01:22:16.277Z,1.59
2019-04-14T01:24:45.372Z,1.48
2019-04-14T01:27:14.560Z,1.64
2019-04-14T01:29:44.824Z,1.69
2019-04-14T01:32:13.846Z,1.63
2019-04-14T01:34:43.399Z,1.59
2019-04-14T01:37:12.182Z,1.61
2019-04-14T01:39:41.470Z,1.58
2019-04-14T01:42:11.576Z,1.62
2019-04-14T01:44:41.617Z,1.54
2019-04-14T01:47:11.966Z,1.58
2019-04-14T01:49:41.881Z,1.47
2019-04-14T01:52:29.633Z,1.42
2019-04-14T01:57:58.896Z,1.44
2019-04-14T02:00:46.694Z,1.37
2019-04-14T02:03:17.126Z,1.32
2019-04-14T02:05:45.789Z,1.21
2019-04-14T02:08:15.517Z,1.28
2019-04-14T02:10:45.610Z,1.24
2019-04-14T02:13:15.703Z,1.18
2019-04-14T02:15:44.522Z,1.10
2019-04-14T02:18:14.276Z,1.09
2019-04-14T02:20:44.601Z,1.13
2019-04-14T02:23:14.720Z,1.07
2019-04-14T02:25:43.429Z,1.19
2019-04-14T02:28:13.422Z,1.12
2019-04-14T02:30:54.038Z,1.09
2019-04-14T02:33:40.830Z,1.10
2019-04-14T02:36:17.977Z,1.12
2019-04-14T02:41:29.966Z,1.09
2019-04-14T02:46:10.372Z,0.97
2019-04-14T02:48:53.660Z,1.04
2019-04-14T02:51:21.099Z,0.93
2019-04-14T02:56:16.006Z,0.97
2019-04-14T02:58:52.044Z,0.97
2019-04-14T03:03:43.834Z,0.84
2019-04-14T03:06:14.576Z,0.87
2019-04-14T03:08:52.078Z,0.84
2019-04-14T03:11:20.664Z,0.77
2019-04-14T03:16:26.728Z,0.88
2019-04-14T03:19:06.686Z,0.81
2019-04-14T03:22:07.130Z,0.81
2019-04-14T03:24:52.111Z,0.82
2019-04-14T03:27:43.130Z,0.90
2019-04-14T03:30:50.335Z,0.81
2019-04-14T03:35:52.047Z,0.78
2019-04-14T03:40:27.665Z,0.79
2019-04-14T03:43:03.154Z,0.83
2019-04-14T03:45:36.263Z,0.72
2019-04-14T03:48:31.850Z,0.49
2019-04-14T03:50:28.237Z,0.45
2019-04-14T03:53:05.897Z,0.48
2019-04-14T03:55:16.226Z,0.46
2019-04-14T03:57:34.586Z,0.68
2019-04-14T04:00:03.445Z,0.61
2019-04-14T04:02:33.627Z,0.62
2019-04-14T04:05:02.405Z,0.76
2019-04-14T04:07:32.180Z,0.82
2019-04-14T04:10:05.390Z,0.84
2019-04-14T04:12:34.120Z,0.83
2019-04-14T04:15:03.951Z,0.75
2019-04-14T04:18:11.233Z,0.72
2019-04-14T04:21:18.327Z,0.70
2019-04-14T04:23:55.404Z,0.55
2019-04-14T04:26:32.210Z,0.48
2019-04-14T04:29:11.708Z,0.56
2019-04-14T04:31:52.633Z,0.47
2019-04-14T04:34:40.511Z,0.52
2019-04-14T04:37:24.321Z,0.54
2019-04-14T04:39:54.035Z,0.50
2019-04-14T04:42:24.361Z,0.48
2019-04-14T04:44:53.378Z,0.53
2019-04-14T04:47:23.131Z,0.53
2019-04-14T04:49:53.262Z,0.57
2019-04-14T04:52:25.847Z,0.57
2019-04-14T04:54:54.538Z,0.55
2019-04-14T04:57:24.241Z,0.59
2019-04-14T04:59:53.928Z,0.57
2019-04-14T05:02:23.068Z,0.52
2019-04-14T05:04:52.660Z,0.52
2019-04-14T05:07:21.540Z,0.58
2019-04-14T05:10:08.874Z,0.66
2019-04-14T05:12:43.625Z,0.58
2019-04-14T05:15:33.449Z,0.54
2019-04-14T05:18:02.796Z,0.54
2019-04-14T05:20:31.651Z,0.58
2019-04-14T05:23:01.566Z,0.69
2019-04-14T05:25:30.361Z,0.62
2019-04-14T05:28:00.420Z,0.66
2019-04-14T05:30:29.081Z,0.81
2019-04-14T05:32:58.725Z,0.94
2019-04-14T05:35:27.506Z,0.91
2019-04-14T05:37:57.331Z,1.03
2019-04-14T05:40:26.386Z,0.99
2019-04-14T05:42:55.897Z,0.99
2019-04-14T05:45:24.695Z,0.96
2019-04-14T05:47:54.367Z,0.95
2019-04-14T05:50:23.432Z,0.88
2019-04-14T05:52:53.500Z,0.92
2019-04-14T05:55:22.270Z,0.90
2019-04-14T05:57:52.385Z,0.82
2019-04-14T06:00:21.647Z,0.89
2019-04-14T06:02:50.718Z,0.93
2019-04-14T06:05:19.487Z,0.88
2019-04-14T06:07:48.277Z,0.80
2019-04-14T06:10:17.022Z,0.96
2019-04-14T06:12:45.964Z,0.95
2019-04-14T06:15:14.913Z,1.14
2019-04-14T06:17:43.628Z,1.23
2019-04-14T06:20:12.399Z,1.16
2019-04-14T06:22:41.114Z,1.26
2019-04-14T06:25:10.106Z,1.25
2019-04-14T06:27:38.872Z,1.30
2019-04-14T06:30:31.305Z,1.49
2019-04-14T06:33:04.250Z,1.53
2019-04-14T06:35:52.269Z,1.54
2019-04-14T06:38:24.613Z,1.64
2019-04-14T06:40:58.243Z,1.86
2019-04-14T06:43:27.220Z,2.00
2019-04-14T06:45:56.193Z,2.03
2019-04-14T06:48:25.122Z,1.93
2019-04-14T06:50:53.816Z,1.97
2019-04-14T06:53:22.805Z,2.05
2019-04-14T06:55:51.747Z,2.18
2019-04-14T06:58:20.431Z,2.21
2019-04-14T07:00:49.162Z,2.18
2019-04-14T07:03:18.118Z,2.37
2019-04-14T07:05:47.050Z,2.44
2019-04-14T07:08:15.976Z,2.36
2019-04-14T07:10:45.170Z,2.35
2019-04-14T07:13:14.207Z,2.44
2019-04-14T07:15:43.161Z,2.43
2019-04-14T07:18:12.138Z,2.57
2019-04-14T07:20:41.263Z,2.64
2019-04-14T07:23:10.356Z,2.64
2019-04-14T07:25:39.095Z,2.81
2019-04-14T07:28:07.819Z,2.87
2019-04-14T07:31:04.398Z,2.79
2019-04-14T07:33:50.787Z,2.72
2019-04-14T07:36:37.361Z,2.76
2019-04-14T07:39:32.395Z,2.82
2019-04-14T07:42:07.737Z,3.03
2019-04-14T07:44:49.392Z,2.96
2019-04-14T07:47:24.223Z,2.93
2019-04-14T07:50:14.770Z,2.93
2019-04-14T07:53:17.046Z,2.94
2019-04-14T07:55:48.805Z,2.88
2019-04-14T07:58:32.567Z,3.16
2019-04-14T08:01:26.336Z,3.20
2019-04-14T08:04:05.988Z,3.47
2019-04-14T08:06:34.774Z,3.43
2019-04-14T08:09:05.201Z,3.62
2019-04-14T08:11:33.919Z,3.73
2019-04-14T08:14:02.867Z,3.78
2019-04-14T08:16:31.828Z,3.71
2019-04-14T08:19:00.789Z,3.85
2019-04-14T08:21:29.522Z,3.79
2019-04-14T08:23:58.226Z,3.85
2019-04-14T08:26:26.951Z,3.90
2019-04-14T08:28:55.635Z,3.96
2019-04-14T08:31:24.367Z,3.99
2019-04-14T08:33:53.087Z,4.15
2019-04-14T08:36:21.784Z,4.25
2019-04-14T08:38:50.472Z,4.34
2019-04-14T08:41:19.423Z,4.31
2019-04-14T08:43:55.416Z,4.41
2019-04-14T08:46:52.417Z,4.20
2019-04-14T08:49:40.146Z,4.34
2019-04-14T08:52:24.279Z,4.41
2019-04-14T08:55:12.108Z,4.69
2019-04-14T08:57:58.705Z,4.92
2019-04-14T09:00:31.803Z,5.04
2019-04-14T09:03:12.642Z,5.10
2019-04-14T09:05:50.554Z,5.11
2019-04-14T09:08:23.974Z,5.06
2019-04-14T09:10:56.682Z,4.94
2019-04-14T09:13:25.636Z,4.99
2019-04-14T09:15:54.349Z,5.12
2019-04-14T09:18:23.269Z,5.13
2019-04-14T09:20:52.820Z,5.19
2019-04-14T09:23:21.883Z,5.13
2019-04-14T09:25:50.583Z,5.23
2019-04-14T09:28:19.329Z,5.26
2019-04-14T09:30:48.018Z,5.28
2019-04-14T09:33:16.942Z,5.48
2019-04-14T09:35:46.126Z,5.40
2019-04-14T09:38:14.816Z,5.38
2019-04-14T09:40:43.777Z,5.33
2019-04-14T09:43:12.451Z,5.25
2019-04-14T09:45:41.145Z,5.26
2019-04-14T09:48:10.081Z,5.44
2019-04-14T09:50:38.779Z,5.47
2019-04-14T09:53:07.482Z,5.41
2019-04-14T09:55:36.520Z,5.20
2019-04-14T09:58:05.284Z,5.49
2019-04-14T10:03:24.203Z,5.63
2019-04-14T10:05:52.924Z,5.69
2019-04-14T10:08:21.609Z,5.77
2019-04-14T10:10:50.578Z,5.75
2019-04-14T10:13:19.319Z,5.62
2019-04-14T10:15:48.021Z,5.60
2019-04-14T10:18:17.188Z,5.50
2019-04-14T10:20:46.145Z,5.57
2019-04-14T10:23:15.075Z,5.67
2019-04-14T10:25:43.983Z,5.91
2019-04-14T10:28:12.667Z,6.24
2019-04-14T10:30:41.615Z,6.47
2019-04-14T10:33:10.325Z,6.67
2019-04-14T10:35:39.250Z,6.59
2019-04-14T10:38:08.016Z,5.83
2019-04-14T10:40:37.181Z,6.16
2019-04-14T10:43:06.242Z,6.01
2019-04-14T10:45:34.939Z,5.94
2019-04-14T10:48:03.699Z,5.90
2019-04-14T10:50:32.709Z,5.89
2019-04-14T10:53:01.656Z,6.00
2019-04-14T10:55:30.643Z,5.92
2019-04-14T10:57:59.616Z,5.90
2019-04-14T11:00:28.798Z,6.03
2019-04-14T11:02:57.524Z,6.09
2019-04-14T11:05:28.870Z,6.36
2019-04-14T11:07:57.585Z,6.43
2019-04-14T11:10:26.345Z,6.46
2019-04-14T11:12:55.319Z,6.50
2019-04-14T11:15:24.301Z,6.44
2019-04-14T11:17:53.017Z,6.43
2019-04-14T11:20:21.944Z,6.39
2019-04-14T11:23:02.537Z,6.30
2019-04-14T11:25:21.420Z,6.22
2019-04-14T11:27:50.390Z,6.18
2019-04-14T11:30:20.841Z,6.23
2019-04-14T11:33:08.587Z,6.30
2019-04-14T11:36:02.357Z,6.14
2019-04-14T11:38:34.400Z,6.20
2019-04-14T11:41:04.737Z,6.19
2019-04-14T11:43:33.671Z,6.13
2019-04-14T11:46:03.852Z,6.24
2019-04-14T11:48:32.876Z,6.45
2019-04-14T11:51:01.830Z,6.52
2019-04-14T11:53:30.553Z,6.68
2019-04-14T11:55:59.247Z,6.58
2019-04-14T11:58:29.300Z,6.59
2019-04-14T12:01:32.118Z,6.67
2019-04-14T12:04:15.617Z,6.60
2019-04-14T12:07:03.395Z,6.57
2019-04-14T12:09:41.920Z,6.71
2019-04-14T12:12:11.040Z,6.61
2019-04-14T12:14:40.073Z,6.52
2019-04-14T12:17:09.058Z,6.28
2019-04-14T12:19:37.894Z,6.26
2019-04-14T12:22:08.419Z,6.20
2019-04-14T12:24:37.293Z,6.15
2019-04-14T12:27:06.012Z,6.16
2019-04-14T12:29:34.857Z,6.30
2019-04-14T12:32:04.221Z,6.28
2019-04-14T12:34:34.257Z,6.46
2019-04-14T12:37:03.030Z,6.39
2019-04-14T12:39:31.773Z,6.25
2019-04-14T12:42:31.942Z,6.35
2019-04-14T12:45:18.730Z,6.17
2019-04-14T12:48:06.582Z,5.96
2019-04-14T12:50:38.632Z,5.77
2019-04-14T12:53:06.517Z,5.75
2019-04-14T12:55:35.679Z,5.69
2019-04-14T12:58:05.610Z,5.66
2019-04-14T13:00:40.941Z,5.73
2019-04-14T13:03:09.745Z,5.70
2019-04-14T13:05:38.459Z,5.70
2019-04-14T13:08:08.246Z,5.64
2019-04-14T13:10:37.338Z,5.55
2019-04-14T13:13:06.207Z,5.74
2019-04-14T13:15:34.954Z,5.70
2019-04-14T13:18:03.975Z,5.68
2019-04-14T13:20:32.934Z,5.66
2019-04-14T13:23:01.712Z,5.64
2019-04-14T13:25:30.675Z,5.59
2019-04-14T13:27:59.370Z,5.47
2019-04-14T13:30:31.580Z,5.44
2019-04-14T13:33:00.292Z,5.42
2019-04-14T13:35:29.111Z,5.45
2019-04-14T13:37:57.806Z,5.42
2019-04-14T13:40:26.898Z,5.33
2019-04-14T13:42:55.892Z,5.29
2019-04-14T13:45:24.778Z,5.29
2019-04-14T13:47:53.493Z,5.36
2019-04-14T13:50:22.470Z,5.42
2019-04-14T13:52:51.447Z,5.49
2019-04-14T13:55:21.431Z,5.59
2019-04-14T13:57:50.206Z,5.54
2019-04-14T14:00:19.802Z,5.47
2019-04-14T14:02:48.778Z,5.34
2019-04-14T14:05:17.521Z,5.38
2019-04-14T14:07:46.586Z,5.35
2019-04-14T14:10:15.949Z,5.32
2019-04-14T14:13:06.739Z,5.34
2019-04-14T14:15:57.693Z,5.40
2019-04-14T14:18:37.699Z,5.34
2019-04-14T14:21:24.358Z,5.31
2019-04-14T14:24:06.926Z,5.34
2019-04-14T14:26:37.112Z,5.32
2019-04-14T14:29:06.200Z,5.28
2019-04-14T14:31:34.907Z,5.20
2019-04-14T14:34:03.971Z,5.19
2019-04-14T14:36:32.706Z,5.23
2019-04-14T14:39:01.765Z,5.21
2019-04-14T14:41:30.501Z,5.15
2019-04-14T14:43:59.219Z,5.14
2019-04-14T14:46:39.911Z,5.18
2019-04-14T14:49:16.815Z,5.11
2019-04-14T14:51:49.116Z,5.21
2019-04-14T14:54:18.166Z,5.15
2019-04-14T14:56:46.853Z,5.23
2019-04-14T14:59:15.871Z,5.21
2019-04-14T15:01:44.836Z,5.11
2019-04-14T15:04:13.558Z,5.00
2019-04-14T15:06:42.678Z,4.92
2019-04-14T15:09:11.447Z,4.80
2019-04-14T15:11:40.486Z,4.69
2019-04-14T15:14:09.254Z,4.72
2019-04-14T15:16:38.289Z,4.61
2019-04-14T15:19:07.500Z,4.53
2019-04-14T15:21:37.177Z,4.51
2019-04-14T15:24:06.262Z,4.37
2019-04-14T15:26:35.116Z,4.37
2019-04-14T15:29:03.958Z,4.43
2019-04-14T15:31:32.740Z,4.54
2019-04-14T15:34:01.594Z,4.55
2019-04-14T15:36:30.564Z,4.56
2019-04-14T15:39:00.186Z,4.51
2019-04-14T15:41:29.312Z,4.53
2019-04-14T15:43:58.023Z,4.48
2019-04-14T15:46:26.815Z,4.47
2019-04-14T15:48:55.570Z,4.52
2019-04-14T15:51:45.139Z,4.49
2019-04-14T15:54:13.843Z,4.51
2019-04-14T15:57:06.051Z,4.58
2019-04-14T15:59:59.633Z,4.45
2019-04-14T16:02:47.479Z,4.58
2019-04-14T16:05:23.896Z,4.52
2019-04-14T16:08:20.752Z,4.52
2019-04-14T16:11:17.295Z,4.52
2019-04-14T16:13:52.676Z,4.51
2019-04-14T16:16:35.194Z,4.55
2019-04-14T16:19:11.772Z,4.52
2019-04-14T16:21:40.533Z,4.40
2019-04-14T16:24:09.496Z,4.30
2019-04-14T16:26:44.570Z,4.30
2019-04-14T16:29:20.439Z,4.35
2019-04-14T16:32:08.664Z,4.31
2019-04-14T16:34:58.628Z,4.37
2019-04-14T16:37:27.410Z,4.29
2019-04-14T16:39:56.122Z,4.18
2019-04-14T16:42:25.453Z,4.26
2019-04-14T16:44:56.402Z,4.37
2019-04-14T16:47:25.178Z,4.25
2019-04-14T16:49:54.030Z,4.19
2019-04-14T16:52:40.440Z,4.27
2019-04-14T16:55:29.770Z,4.21
2019-04-14T16:58:28.919Z,4.22
2019-04-14T17:01:19.910Z,4.24
2019-04-14T17:03:48.866Z,4.12
2019-04-14T17:06:17.574Z,4.18
2019-04-14T17:08:46.511Z,4.18
2019-04-14T17:11:15.230Z,4.17
2019-04-14T17:13:48.754Z,4.18
2019-04-14T17:16:42.772Z,4.16
2019-04-14T17:19:29.184Z,4.19
2019-04-14T17:22:26.096Z,4.20
2019-04-14T17:25:32.481Z,4.17
2019-04-14T17:28:20.232Z,3.98
2019-04-14T17:30:59.159Z,4.01
2019-04-14T17:33:39.278Z,4.08
2019-04-14T17:36:26.040Z,4.07
2019-04-14T17:39:06.956Z,4.07
2019-04-14T17:41:57.925Z,4.04
2019-04-14T17:44:33.954Z,3.99
2019-04-14T17:47:10.887Z,4.01
2019-04-14T17:49:49.125Z,4.02
2019-04-14T17:52:35.657Z,3.98
2019-04-14T17:55:15.098Z,4.06
2019-04-14T17:58:02.399Z,4.05
2019-04-14T18:00:59.318Z,4.05
2019-04-14T18:03:35.003Z,3.98
2019-04-14T18:06:15.105Z,3.95
2019-04-14T18:09:02.661Z,4.01
2019-04-14T18:11:37.287Z,4.01
2019-04-14T18:14:21.429Z,3.96
2019-04-14T18:17:15.213Z,4.00
2019-04-14T18:19:48.323Z,4.11
2019-04-14T18:22:17.094Z,4.18
2019-04-14T18:24:45.806Z,4.22
2019-04-14T18:27:14.900Z,4.20
2019-04-14T18:29:58.171Z,4.20
2019-04-14T18:32:34.066Z,4.15
2019-04-14T18:35:11.457Z,3.99
2019-04-14T18:37:47.957Z,3.92
2019-04-14T18:40:30.749Z,3.92
2019-04-14T18:43:28.002Z,3.97
2019-04-14T18:46:15.873Z,3.96
2019-04-14T18:48:56.200Z,4.04
2019-04-14T18:51:38.071Z,4.17
2019-04-14T18:54:27.070Z,4.08
2019-04-14T18:57:15.821Z,4.00
2019-04-14T18:59:49.983Z,4.04
2019-04-14T19:02:21.243Z,4.02
2019-04-14T19:04:49.955Z,3.99
2019-04-14T19:07:18.683Z,3.98
2019-04-14T19:09:47.451Z,4.04
2019-04-14T19:12:40.992Z,4.05
2019-04-14T19:15:28.241Z,4.04
2019-04-14T19:18:13.902Z,4.18
2019-04-14T19:20:51.971Z,4.21
2019-04-14T19:23:20.851Z,4.18
2019-04-14T19:25:56.755Z,4.20
2019-04-14T19:28:26.573Z,4.17
2019-04-14T19:30:57.100Z,4.25
2019-04-14T19:33:37.443Z,4.22
2019-04-14T19:36:06.376Z,4.23
2019-04-14T19:38:35.329Z,4.36
2019-04-14T19:41:04.189Z,4.22
2019-04-14T19:43:33.191Z,4.20
2019-04-14T19:46:02.161Z,4.25
2019-04-14T19:48:32.046Z,4.34
2019-04-14T19:51:00.757Z,4.20
2019-04-14T19:53:29.502Z,4.27
2019-04-14T19:55:58.209Z,4.24
2019-04-14T19:58:27.156Z,4.30
2019-04-14T20:00:55.835Z,4.31
2019-04-14T20:03:25.043Z,4.24
2019-04-14T20:05:54.015Z,4.22
2019-04-14T20:08:22.739Z,4.14
2019-04-14T20:10:51.471Z,4.13
2019-04-14T20:13:20.413Z,4.18
2019-04-14T20:16:26.531Z,4.20
2019-04-14T20:19:12.838Z,4.36
2019-04-14T20:22:15.792Z,4.27
2019-04-14T20:24:54.166Z,4.37
2019-04-14T20:27:44.773Z,4.37
2019-04-14T20:30:24.585Z,4.33
2019-04-14T20:32:53.290Z,4.31
2019-04-14T20:35:22.349Z,4.51
2019-04-14T20:37:51.479Z,4.44
2019-04-14T20:40:20.182Z,4.44
2019-04-14T20:42:48.873Z,4.52
2019-04-14T20:45:18.179Z,4.54
2019-04-14T20:47:47.145Z,4.49
2019-04-14T20:50:16.024Z,4.38
2019-04-14T20:52:44.706Z,4.52
2019-04-14T20:55:13.669Z,4.45
2019-04-14T20:57:42.578Z,4.58
2019-04-14T21:00:13.184Z,4.62
2019-04-14T21:03:04.087Z,4.65
2019-04-14T21:05:47.650Z,4.53
2019-04-14T21:08:42.523Z,4.54
2019-04-14T21:11:17.715Z,4.59
2019-04-14T21:14:18.033Z,4.59
2019-04-14T21:16:59.784Z,4.66
2019-04-14T21:19:37.331Z,4.57
2019-04-14T21:22:34.629Z,4.58
2019-04-14T21:25:19.402Z,4.66
2019-04-14T21:28:09.642Z,4.59
2019-04-14T21:30:44.958Z,4.58
2019-04-14T21:33:32.685Z,4.58
2019-04-14T21:36:23.934Z,4.65
2019-04-14T21:39:03.121Z,4.79
2019-04-14T21:41:31.835Z,4.94
2019-04-14T21:44:00.852Z,4.74
2019-04-14T21:46:29.784Z,4.69
2019-04-14T21:48:58.467Z,4.63
2019-04-14T21:51:46.248Z,4.76
2019-04-14T21:54:15.248Z,4.71
2019-04-14T21:56:45.565Z,4.87
2019-04-14T21:59:19.753Z,4.85
2019-04-14T22:02:06.093Z,4.81
2019-04-14T22:04:53.838Z,4.78
2019-04-14T22:07:54.304Z,4.80
2019-04-14T22:10:39.982Z,4.77
2019-04-14T22:13:09.090Z,4.83
2019-04-14T22:15:37.796Z,4.85
2019-04-14T22:18:06.580Z,4.88
2019-04-14T22:20:35.348Z,4.75
2019-04-14T22:23:05.790Z,4.72
2019-04-14T22:25:34.836Z,4.74
2019-04-14T22:28:03.810Z,4.80
2019-04-14T22:30:32.657Z,4.75
2019-04-14T22:33:01.591Z,4.77
2019-04-14T22:35:30.550Z,4.77
2019-04-14T22:37:59.316Z,4.75
2019-04-14T22:40:28.091Z,4.75
2019-04-14T22:42:57.048Z,4.74
2019-04-14T22:45:26.017Z,4.75
2019-04-14T22:47:54.940Z,4.77
2019-04-14T22:50:23.631Z,4.76
2019-04-14T22:52:52.599Z,4.74
2019-04-14T22:55:21.328Z,4.79
2019-04-14T22:57:50.249Z,4.82
2019-04-14T23:00:51.135Z,4.80
2019-04-14T23:03:43.383Z,4.93
2019-04-14T23:06:34.187Z,4.88
2019-04-14T23:09:28.195Z,4.95
2019-04-14T23:12:14.720Z,4.94
2019-04-14T23:14:57.388Z,4.96
2019-04-14T23:17:34.980Z,4.94
2019-04-14T23:20:38.643Z,4.92
2019-04-14T23:23:44.700Z,4.98
2019-04-14T23:26:14.020Z,5.00
2019-04-14T23:28:42.973Z,5.09
2019-04-14T23:31:11.749Z,4.88
2019-04-14T23:33:40.751Z,4.85
2019-04-14T23:36:09.760Z,4.81
2019-04-14T23:38:38.936Z,4.80
2019-04-14T23:41:07.719Z,4.81
2019-04-14T23:43:36.759Z,4.81
2019-04-14T23:46:05.605Z,4.85
2019-04-14T23:48:34.585Z,4.90
2019-04-14T23:51:03.591Z,4.83
2019-04-14T23:53:32.761Z,4.74
2019-04-14T23:56:01.806Z,4.79
2019-04-14T23:58:30.503Z,4.77
